Lobo

Go HERE for most recent data if this page is not up to date.

Jump to table bottom
Date/Time Temp deg F RH % 24 Hr Snow (in) Snow Depth (in) H2O (in)
03/22 06:00 30.2 41 0.2 59.3 0.00
03/22 05:00 30.8 41 0.3 59.4 0.00
03/22 04:00 30.5 41 0.3 59.4 0.00
03/22 03:00 30.5 42 0.2 59.3 0.00
03/22 02:00 30.9 41 0.2 59.3 0.00
03/22 01:00 31.7 39 0.2 59.1 0.00
03/22 00:00 33.2 34 0.2 59.4 0.00
03/21 23:00 34.0 33 0.2 59.4 0.00
03/21 22:00 35.3 30 0.2 59.2 0.00
03/21 21:00 36.4 28 0.1 59.2 0.00
03/21 20:00 38.5 26 0.1 59.1 0.00
03/21 19:00 40.3 27 0.0 59.1 0.00
03/21 18:00 42.2 25 -0.0 58.6 0.00
03/21 17:00 44.3 19 -0.0 58.8 0.00
03/21 16:00 45.9 15 -0.2 58.8 0.00
03/21 15:00 46.9 16 -0.4 58.6 0.00
03/21 14:00 45.5 19 -0.3 59.3 0.00
03/21 13:00 43.3 19 -0.2 59.5 0.00
03/21 12:00 40.2 23 0.0 60.0 0.00
03/21 11:00 38.1 26 0.1 60.1 0.00
03/21 10:00 36.3 29 0.3 60.4 0.00
03/21 09:00 34.4 32 0.3 60.4 0.00
03/21 08:00 32.9 36 0.3 60.5 0.00
03/21 07:00 33.4 35 0.2 60.4 0.00
03/21 06:00 34.3 32 0.3 60.2 0.00
03/21 05:00 34.1 31 0.3 60.3 0.00
03/21 04:00 32.8 32 0.3 60.3 0.00
03/21 03:00 33.6 30 0.3 60.3 0.00
03/21 02:00 34.4 27 0.3 60.5 0.00
03/21 01:00 34.2 25 0.3 60.7 0.00
03/21 00:00 33.7 31 0.3 60.6 0.00
.